createdAt,value
2022-09-12T00:01:55.342Z,7.90
2022-09-12T00:04:22.744Z,9.60
2022-09-12T00:06:50.228Z,9.85
2022-09-12T00:09:17.544Z,9.90
2022-09-12T00:11:46.195Z,9.98
2022-09-12T00:14:15.284Z,10.05
2022-09-12T00:16:44.355Z,7.68
2022-09-12T00:19:12.238Z,9.75
2022-09-12T00:21:40.502Z,9.18
2022-09-12T00:24:08.482Z,9.82
2022-09-12T00:26:35.895Z,10.00
2022-09-12T00:29:03.274Z,9.48
2022-09-12T00:31:30.636Z,8.13
2022-09-12T00:34:00.735Z,8.93
2022-09-12T00:36:28.685Z,9.00
2022-09-12T00:38:56.144Z,11.27
2022-09-12T00:41:26.123Z,10.25
2022-09-12T00:43:54.142Z,8.52
2022-09-12T00:46:31.937Z,7.60
2022-09-12T00:49:02.571Z,7.88
2022-09-12T00:51:31.459Z,15.25
2022-09-12T00:53:59.641Z,12.18
2022-09-12T00:56:28.218Z,10.32
2022-09-12T00:58:59.237Z,9.20
2022-09-12T01:01:31.728Z,8.90
2022-09-12T01:04:01.502Z,9.02
2022-09-12T01:06:29.524Z,7.65
2022-09-12T01:08:57.569Z,7.57
2022-09-12T01:11:24.946Z,9.18
2022-09-12T01:13:52.359Z,7.45
2022-09-12T01:16:19.986Z,7.93
2022-09-12T01:18:56.088Z,9.13
2022-09-12T01:21:34.665Z,9.52
2022-09-12T01:24:12.781Z,8.20
2022-09-12T01:26:54.370Z,9.48
2022-09-12T01:29:34.600Z,10.15
2022-09-12T01:32:06.913Z,8.25
2022-09-12T01:34:37.384Z,8.05
2022-09-12T01:37:12.215Z,7.07
2022-09-12T01:39:41.757Z,9.45
2022-09-12T01:42:11.986Z,7.65
2022-09-12T01:44:46.239Z,8.95
2022-09-12T01:47:17.214Z,7.57
2022-09-12T01:52:16.674Z,7.15
2022-09-12T01:54:46.116Z,8.88
2022-09-12T01:57:14.994Z,6.72
2022-09-12T01:59:44.584Z,8.73
2022-09-12T02:02:13.955Z,7.53
2022-09-12T02:04:46.805Z,6.75
2022-09-12T02:07:15.819Z,8.15
2022-09-12T02:09:46.379Z,8.30
2022-09-12T02:12:16.009Z,7.03
2022-09-12T02:14:47.004Z,6.93
2022-09-12T02:17:16.530Z,7.07
2022-09-12T02:19:47.455Z,8.32
2022-09-12T02:24:43.762Z,5.88
2022-09-12T02:27:13.237Z,8.70
2022-09-12T02:29:40.722Z,7.20
2022-09-12T02:32:12.566Z,7.75
2022-09-12T02:34:43.066Z,5.75
2022-09-12T02:37:18.618Z,7.22
2022-09-12T02:39:46.595Z,7.45
2022-09-12T02:42:14.374Z,9.35
2022-09-12T02:44:41.905Z,9.55
2022-09-12T02:47:10.682Z,6.95
2022-09-12T02:49:38.090Z,8.93
2022-09-12T02:52:05.549Z,10.77
2022-09-12T02:54:34.286Z,8.40
2022-09-12T02:57:01.641Z,10.07
2022-09-12T02:59:29.058Z,8.77
2022-09-12T03:02:05.540Z,13.23
2022-09-12T03:04:41.319Z,9.70
2022-09-12T03:07:13.642Z,12.68
2022-09-12T03:09:45.306Z,10.55
2022-09-12T03:12:19.202Z,10.48
2022-09-12T03:14:53.314Z,7.97
2022-09-12T03:17:26.955Z,10.55
2022-09-12T03:19:57.543Z,10.63
2022-09-12T03:22:29.047Z,10.93
2022-09-12T03:25:01.510Z,10.38
2022-09-12T03:27:30.121Z,9.40
2022-09-12T03:29:58.105Z,9.98
2022-09-12T03:32:40.394Z,9.93
2022-09-12T03:35:08.127Z,7.60
2022-09-12T03:37:35.515Z,9.55
2022-09-12T03:40:04.838Z,8.95
2022-09-12T03:42:32.216Z,10.95
2022-09-12T03:44:59.587Z,8.73
2022-09-12T03:47:26.946Z,7.55
2022-09-12T03:49:54.303Z,8.48
2022-09-12T03:52:21.675Z,10.13
2022-09-12T03:54:49.048Z,11.43
2022-09-12T03:57:17.741Z,8.40
2022-09-12T03:59:45.102Z,9.15
2022-09-12T04:02:13.697Z,10.25
2022-09-12T04:04:42.000Z,9.65
2022-09-12T04:07:09.827Z,11.18
2022-09-12T04:09:37.235Z,11.57
2022-09-12T04:12:04.968Z,8.32
2022-09-12T04:14:33.699Z,11.77
2022-09-12T04:17:01.122Z,10.32
2022-09-12T04:19:28.635Z,10.32
2022-09-12T04:21:56.051Z,9.13
2022-09-12T04:24:23.446Z,9.88
2022-09-12T04:26:50.839Z,9.57
2022-09-12T04:29:18.173Z,10.43
2022-09-12T04:31:46.859Z,8.23
2022-09-12T04:34:15.008Z,9.00
2022-09-12T04:36:42.711Z,11.88
2022-09-12T04:39:11.195Z,9.07
2022-09-12T04:41:39.154Z,9.18
2022-09-12T04:44:07.656Z,9.70
2022-09-12T04:46:36.029Z,9.15
2022-09-12T04:49:05.141Z,11.98
2022-09-12T04:51:33.735Z,9.55
2022-09-12T04:54:02.205Z,9.50
2022-09-12T04:56:30.119Z,12.05
2022-09-12T04:58:58.119Z,11.77
2022-09-12T05:01:25.509Z,8.75
2022-09-12T05:03:52.870Z,11.30
2022-09-12T05:06:23.808Z,12.20
2022-09-12T05:08:51.571Z,9.80
2022-09-12T05:11:24.605Z,12.27
2022-09-12T05:13:53.042Z,12.40
2022-09-12T05:16:20.980Z,11.07
2022-09-12T05:18:48.934Z,9.18
2022-09-12T05:21:16.989Z,9.13
2022-09-12T05:23:45.698Z,11.05
2022-09-12T05:26:14.284Z,14.75
2022-09-12T05:28:41.773Z,12.70
2022-09-12T05:31:10.150Z,13.02
2022-09-12T05:33:38.410Z,13.05
2022-09-12T05:36:06.762Z,11.35
2022-09-12T05:38:35.625Z,13.85
2022-09-12T05:41:07.700Z,10.90
2022-09-12T05:43:35.249Z,12.70
2022-09-12T05:46:03.078Z,12.90
2022-09-12T05:48:30.694Z,12.23
2022-09-12T05:51:02.534Z,11.68
2022-09-12T05:53:30.232Z,12.18
2022-09-12T05:56:04.961Z,11.73
2022-09-12T05:58:33.706Z,10.77
2022-09-12T06:01:05.521Z,12.07
2022-09-12T06:03:32.911Z,12.55
2022-09-12T06:06:02.601Z,13.75
2022-09-12T06:08:29.966Z,11.38
2022-09-12T06:11:02.292Z,13.77
2022-09-12T06:13:31.778Z,14.27
2022-09-12T06:16:05.310Z,11.50
2022-09-12T06:18:32.850Z,11.82
2022-09-12T06:21:03.154Z,11.63
2022-09-12T06:23:30.536Z,12.77
2022-09-12T06:25:58.141Z,14.68
2022-09-12T06:28:25.819Z,14.52
2022-09-12T06:30:53.392Z,12.57
2022-09-12T06:33:22.119Z,13.80
2022-09-12T06:35:49.473Z,16.23
2022-09-12T06:38:17.827Z,12.70
2022-09-12T06:40:45.320Z,12.68
2022-09-12T06:43:13.650Z,17.13
2022-09-12T06:45:41.198Z,16.10
2022-09-12T06:48:08.562Z,14.00
2022-09-12T06:50:37.283Z,16.85
2022-09-12T06:53:04.638Z,16.67
2022-09-12T06:55:32.030Z,18.10
2022-09-12T06:57:59.455Z,15.52
2022-09-12T07:00:26.957Z,13.68
2022-09-12T07:02:55.147Z,20.90
2022-09-12T07:05:22.515Z,15.32
2022-09-12T07:07:51.254Z,16.73
2022-09-12T07:10:22.219Z,15.85
2022-09-12T07:12:49.794Z,14.85
2022-09-12T07:15:17.936Z,16.38
2022-09-12T07:17:45.357Z,12.90
2022-09-12T07:20:12.725Z,15.10
2022-09-12T07:22:41.026Z,16.55
2022-09-12T07:25:10.061Z,14.90
2022-09-12T07:27:37.608Z,20.08
2022-09-12T07:30:05.373Z,13.75
2022-09-12T07:32:32.748Z,13.93
2022-09-12T07:35:00.141Z,14.65
2022-09-12T07:37:29.382Z,11.77
2022-09-12T07:39:57.425Z,14.32
2022-09-12T07:42:26.180Z,12.18
2022-09-12T07:44:53.804Z,9.77
2022-09-12T07:47:21.184Z,14.35
2022-09-12T07:49:48.596Z,9.60
2022-09-12T07:52:15.920Z,8.90
2022-09-12T07:54:43.300Z,8.65
2022-09-12T07:57:10.664Z,7.78
2022-09-12T07:59:52.470Z,7.65
2022-09-12T08:02:20.558Z,6.50
2022-09-12T08:04:48.202Z,7.63
2022-09-12T08:07:16.019Z,6.47
2022-09-12T08:09:43.375Z,7.78
2022-09-12T08:12:10.706Z,6.47
2022-09-12T08:14:39.420Z,6.57
2022-09-12T08:17:06.827Z,5.40
2022-09-12T08:19:34.219Z,7.28
2022-09-12T08:22:02.074Z,5.78
2022-09-12T08:24:29.458Z,5.05
2022-09-12T08:26:56.851Z,3.97
2022-09-12T08:29:24.220Z,5.65
2022-09-12T08:31:57.095Z,6.97
2022-09-12T08:34:26.079Z,4.78
2022-09-12T08:36:54.227Z,5.50
2022-09-12T08:39:22.297Z,4.13
2022-09-12T08:41:51.548Z,3.92
2022-09-12T08:44:45.825Z,4.55
2022-09-12T08:47:21.222Z,6.35
2022-09-12T08:49:55.244Z,4.35
2022-09-12T08:52:24.624Z,4.88
2022-09-12T08:54:52.185Z,5.05
2022-09-12T08:57:19.544Z,8.27
2022-09-12T08:59:48.229Z,6.13
2022-09-12T09:02:25.853Z,5.43
2022-09-12T09:04:57.596Z,6.50
2022-09-12T09:07:33.084Z,6.25
2022-09-12T09:10:09.152Z,3.78
2022-09-12T09:12:40.154Z,3.92
2022-09-12T09:15:13.171Z,4.18
2022-09-12T09:17:43.611Z,4.65
2022-09-12T09:20:18.651Z,3.47
2022-09-12T09:22:48.485Z,3.78
2022-09-12T09:25:22.561Z,3.00
2022-09-12T09:27:52.796Z,5.25
2022-09-12T09:30:21.479Z,3.92
2022-09-12T09:32:53.535Z,5.22
2022-09-12T09:35:24.832Z,4.47
2022-09-12T09:37:59.031Z,6.80
2022-09-12T09:40:28.506Z,3.28
2022-09-12T09:42:59.494Z,5.60
2022-09-12T09:45:29.050Z,4.55
2022-09-12T09:48:01.487Z,4.20
2022-09-12T09:50:29.730Z,4.35
2022-09-12T09:52:57.858Z,2.92
2022-09-12T09:55:29.086Z,5.32
2022-09-12T09:57:56.471Z,4.38
2022-09-12T10:00:25.952Z,3.80
2022-09-12T10:03:07.454Z,6.45
2022-09-12T10:05:45.971Z,4.13
2022-09-12T10:08:23.066Z,4.93
2022-09-12T10:10:54.079Z,3.45
2022-09-12T10:13:24.807Z,4.10
2022-09-12T10:16:02.292Z,4.15
2022-09-12T10:18:42.206Z,3.92
2022-09-12T10:21:14.971Z,3.63
2022-09-12T10:23:43.101Z,2.78
2022-09-12T10:26:11.791Z,3.05
2022-09-12T10:28:40.676Z,4.18
2022-09-12T10:31:08.619Z,3.70
2022-09-12T10:33:41.344Z,4.07
2022-09-12T10:36:10.318Z,3.10
2022-09-12T10:38:37.850Z,4.35
2022-09-12T10:41:06.766Z,3.75
2022-09-12T10:43:36.210Z,3.42
2022-09-12T10:46:18.714Z,4.65
2022-09-12T10:48:47.058Z,4.18
2022-09-12T10:51:26.858Z,5.47
2022-09-12T10:53:56.345Z,3.08
2022-09-12T10:56:24.508Z,2.97
2022-09-12T10:59:04.837Z,2.20
2022-09-12T11:01:41.326Z,3.03
2022-09-12T11:04:27.336Z,3.25
2022-09-12T11:07:03.577Z,4.30
2022-09-12T11:09:35.738Z,3.60
2022-09-12T11:12:06.738Z,3.60
2022-09-12T11:14:40.425Z,2.55
2022-09-12T11:17:13.748Z,4.25
2022-09-12T11:19:51.374Z,2.63
2022-09-12T11:22:26.789Z,2.63
2022-09-12T11:25:08.033Z,3.05
2022-09-12T11:27:46.837Z,2.80
2022-09-12T11:30:15.704Z,3.65
2022-09-12T11:32:57.012Z,2.05
2022-09-12T11:35:28.789Z,2.90
2022-09-12T11:38:14.931Z,1.92
2022-09-12T11:40:45.378Z,4.53
2022-09-12T11:43:17.892Z,3.55
2022-09-12T11:45:46.126Z,3.42
2022-09-12T11:48:16.032Z,3.08
2022-09-12T11:50:43.457Z,1.70
2022-09-12T11:53:16.244Z,2.05
2022-09-12T11:55:49.666Z,1.98
2022-09-12T11:58:17.943Z,2.35
2022-09-12T12:00:48.087Z,2.28
2022-09-12T12:05:47.380Z,2.38
2022-09-12T12:08:14.839Z,2.20
2022-09-12T12:10:43.358Z,2.90
2022-09-12T12:13:19.223Z,2.60
2022-09-12T12:15:48.179Z,2.65
2022-09-12T12:18:17.913Z,2.35
2022-09-12T12:20:45.487Z,2.78
2022-09-12T12:23:23.534Z,2.58
2022-09-12T12:25:55.248Z,2.75
2022-09-12T12:28:41.242Z,1.65
2022-09-12T12:31:10.603Z,2.40
2022-09-12T12:34:02.549Z,4.28
2022-09-12T12:36:35.675Z,2.20
2022-09-12T12:39:37.964Z,2.95
2022-09-12T12:42:06.803Z,1.77
2022-09-12T12:44:49.815Z,5.07
2022-09-12T12:49:51.842Z,2.00
2022-09-12T12:52:19.630Z,6.40
2022-09-12T12:54:51.628Z,2.50
2022-09-12T12:57:36.499Z,2.55
2022-09-12T13:00:06.465Z,1.90
2022-09-12T13:02:35.860Z,2.58
2022-09-12T13:05:06.006Z,1.88
2022-09-12T13:07:35.466Z,4.15
2022-09-12T13:10:03.166Z,2.13
2022-09-12T13:12:32.638Z,3.28
2022-09-12T13:15:02.401Z,2.78
2022-09-12T13:17:32.247Z,2.40
2022-09-12T13:20:26.719Z,2.45
2022-09-12T13:22:53.330Z,3.70
2022-09-12T13:25:30.887Z,1.95
2022-09-12T13:27:59.256Z,2.20
2022-09-12T13:30:28.566Z,3.15
2022-09-12T13:32:58.045Z,1.83
2022-09-12T13:35:29.224Z,2.30
2022-09-12T13:38:00.172Z,2.03
2022-09-12T13:40:30.825Z,2.42
2022-09-12T13:43:09.923Z,2.10
2022-09-12T13:45:39.454Z,2.42
2022-09-12T13:48:07.634Z,2.45
2022-09-12T13:50:39.682Z,2.58
2022-09-12T13:53:08.201Z,2.10
2022-09-12T13:55:36.550Z,2.50
2022-09-12T13:58:04.865Z,5.63
2022-09-12T14:00:33.199Z,2.55
2022-09-12T14:03:25.383Z,2.10
2022-09-12T14:05:56.721Z,2.13
2022-09-12T14:08:24.774Z,2.50
2022-09-12T14:10:52.235Z,2.60
2022-09-12T14:13:21.129Z,2.42
2022-09-12T14:15:49.825Z,3.25
2022-09-12T14:18:26.206Z,3.20
2022-09-12T14:20:54.987Z,3.53
2022-09-12T14:23:26.714Z,2.60
2022-09-12T14:25:54.429Z,2.35
2022-09-12T14:28:23.790Z,4.00
2022-09-12T14:31:02.352Z,2.45
2022-09-12T14:33:33.398Z,3.13
2022-09-12T14:36:11.983Z,2.63
2022-09-12T14:38:41.533Z,2.25
2022-09-12T14:41:09.672Z,3.28
2022-09-12T14:43:37.875Z,3.35
2022-09-12T14:46:07.121Z,2.08
2022-09-12T14:48:38.015Z,3.80
2022-09-12T14:51:06.016Z,3.00
2022-09-12T14:53:34.774Z,3.72
2022-09-12T14:56:08.834Z,6.45
2022-09-12T14:58:36.471Z,2.10
2022-09-12T15:01:22.343Z,3.35
2022-09-12T15:03:55.897Z,2.50
2022-09-12T15:06:25.511Z,2.65
2022-09-12T15:08:54.221Z,2.15
2022-09-12T15:11:21.545Z,2.38
2022-09-12T15:13:49.060Z,3.30
2022-09-12T15:16:16.494Z,3.08
2022-09-12T15:18:43.995Z,2.40
2022-09-12T15:21:14.467Z,2.28
2022-09-12T15:23:43.391Z,4.18
2022-09-12T15:26:12.560Z,2.35
2022-09-12T15:28:39.935Z,2.58
2022-09-12T15:31:11.747Z,3.95
2022-09-12T15:33:39.204Z,2.40
2022-09-12T15:36:12.788Z,4.32
2022-09-12T15:38:41.518Z,2.63
2022-09-12T15:41:11.279Z,2.72
2022-09-12T15:43:38.629Z,3.03
2022-09-12T15:46:06.817Z,3.50
2022-09-12T15:48:34.274Z,3.08
2022-09-12T15:51:04.277Z,2.95
2022-09-12T15:53:32.150Z,3.08
2022-09-12T15:56:00.881Z,3.72
2022-09-12T15:58:28.217Z,2.58
2022-09-12T16:00:55.634Z,2.95
2022-09-12T16:03:24.034Z,3.70
2022-09-12T16:05:51.654Z,2.92
2022-09-12T16:08:19.097Z,2.55
2022-09-12T16:10:47.097Z,2.53
2022-09-12T16:13:15.804Z,2.38
2022-09-12T16:15:43.248Z,3.72
2022-09-12T16:18:11.524Z,3.50
2022-09-12T16:20:40.186Z,3.50
2022-09-12T16:23:07.658Z,3.60
2022-09-12T16:25:35.038Z,2.45
2022-09-12T16:28:04.504Z,3.08
2022-09-12T16:30:33.233Z,2.38
2022-09-12T16:33:00.596Z,2.30
2022-09-12T16:35:28.027Z,2.95
2022-09-12T16:37:55.419Z,3.40
2022-09-12T16:40:23.487Z,4.25
2022-09-12T16:42:50.865Z,3.60
2022-09-12T16:45:18.190Z,3.38
2022-09-12T16:47:47.378Z,4.80
2022-09-12T16:50:14.926Z,3.85
2022-09-12T16:52:42.339Z,4.07
2022-09-12T16:55:09.931Z,2.80
2022-09-12T16:57:37.322Z,4.15
2022-09-12T17:00:05.637Z,6.15
2022-09-12T17:02:33.018Z,2.70
2022-09-12T17:05:01.766Z,3.42
2022-09-12T17:07:29.447Z,4.43
2022-09-12T17:09:57.010Z,3.10
2022-09-12T17:12:24.527Z,4.32
2022-09-12T17:14:51.918Z,4.53
2022-09-12T17:17:19.322Z,3.17
2022-09-12T17:19:46.676Z,3.20
2022-09-12T17:22:15.404Z,4.80
2022-09-12T17:24:42.845Z,5.30
2022-09-12T17:27:10.172Z,3.30
2022-09-12T17:29:38.528Z,3.65
2022-09-12T17:32:06.037Z,2.80
2022-09-12T17:34:33.372Z,3.42
2022-09-12T17:37:00.826Z,4.75
2022-09-12T17:39:29.559Z,4.22
2022-09-12T17:41:57.750Z,4.20
2022-09-12T17:44:25.141Z,3.75
2022-09-12T17:46:52.527Z,4.47
2022-09-12T17:49:21.903Z,4.65
2022-09-12T17:51:49.557Z,4.53
2022-09-12T17:54:18.134Z,4.82
2022-09-12T17:56:48.905Z,5.70
2022-09-12T17:59:16.836Z,7.25
2022-09-12T18:02:01.723Z,4.50
2022-09-12T18:04:29.154Z,4.88
2022-09-12T18:06:57.578Z,4.25
2022-09-12T18:09:25.290Z,4.43
2022-09-12T18:11:54.174Z,4.75
2022-09-12T18:14:21.583Z,4.57
2022-09-12T18:16:48.944Z,5.13
2022-09-12T18:19:16.656Z,7.20
2022-09-12T18:21:44.238Z,5.70
2022-09-12T18:24:12.055Z,5.13
2022-09-12T18:26:39.576Z,6.20
2022-09-12T18:29:08.378Z,5.22
2022-09-12T18:31:35.958Z,5.57
2022-09-12T18:34:03.382Z,4.65
2022-09-12T18:36:31.406Z,4.28
2022-09-12T18:38:59.601Z,4.50
2022-09-12T18:41:28.760Z,4.97
2022-09-12T18:43:56.663Z,4.05
2022-09-12T18:46:26.142Z,8.15
2022-09-12T18:48:55.390Z,5.78
2022-09-12T18:51:23.406Z,5.85
2022-09-12T18:53:51.998Z,6.68
2022-09-12T18:56:19.835Z,6.22
2022-09-12T18:58:50.123Z,5.28
2022-09-12T19:01:18.220Z,5.72
2022-09-12T19:03:47.403Z,6.50
2022-09-12T19:06:17.686Z,7.65
2022-09-12T19:08:45.647Z,7.40
2022-09-12T19:11:13.458Z,6.70
2022-09-12T19:13:41.859Z,6.90
2022-09-12T19:16:10.508Z,4.70
2022-09-12T19:18:38.439Z,8.02
2022-09-12T19:21:07.890Z,6.03
2022-09-12T19:23:35.847Z,6.65
2022-09-12T19:26:04.346Z,4.70
2022-09-12T19:28:32.137Z,6.53
2022-09-12T19:30:59.521Z,5.45
2022-09-12T19:33:27.004Z,7.03
2022-09-12T19:35:54.588Z,5.63
2022-09-12T19:38:23.262Z,6.07
2022-09-12T19:40:57.658Z,7.47
2022-09-12T19:43:25.160Z,6.32
2022-09-12T19:45:53.035Z,6.38
2022-09-12T19:48:20.441Z,6.13
2022-09-12T19:50:47.989Z,6.63
2022-09-12T19:53:15.993Z,6.25
2022-09-12T19:55:44.928Z,4.88
2022-09-12T19:58:12.412Z,7.22
2022-09-12T20:00:39.779Z,7.25
2022-09-12T20:03:07.183Z,6.85
2022-09-12T20:05:36.716Z,6.50
2022-09-12T20:08:06.013Z,5.30
2022-09-12T20:10:33.375Z,7.82
2022-09-12T20:13:02.099Z,7.68
2022-09-12T20:15:29.455Z,6.68
2022-09-12T20:17:56.835Z,5.85
2022-09-12T20:20:25.108Z,7.13
2022-09-12T20:22:52.851Z,7.18
2022-09-12T20:25:20.908Z,6.30
2022-09-12T20:27:48.333Z,10.07
2022-09-12T20:30:17.202Z,7.05
2022-09-12T20:32:44.648Z,9.32
2022-09-12T20:35:12.226Z,7.32
2022-09-12T20:37:41.051Z,6.22
2022-09-12T20:40:09.105Z,5.47
2022-09-12T20:42:36.569Z,6.05
2022-09-12T20:45:04.368Z,6.35
2022-09-12T20:47:33.070Z,6.97
2022-09-12T20:50:00.423Z,7.00
2022-09-12T20:52:27.786Z,6.68
2022-09-12T20:54:55.091Z,7.88
2022-09-12T20:57:23.149Z,6.50
2022-09-12T20:59:50.469Z,6.38
2022-09-12T21:02:17.894Z,7.82
2022-09-12T21:04:46.672Z,7.13
2022-09-12T21:07:13.990Z,6.22
2022-09-12T21:09:41.466Z,6.65
2022-09-12T21:12:08.823Z,5.65
2022-09-12T21:14:36.191Z,7.72
2022-09-12T21:17:03.807Z,7.78
2022-09-12T21:19:31.208Z,8.40
2022-09-12T21:21:59.901Z,6.65
2022-09-12T21:24:27.287Z,6.82
2022-09-12T21:26:54.605Z,9.88
2022-09-12T21:29:21.991Z,7.05
2022-09-12T21:31:49.367Z,6.72
2022-09-12T21:34:16.731Z,7.47
2022-09-12T21:36:44.034Z,9.40
2022-09-12T21:39:14.444Z,7.68
2022-09-12T21:41:41.797Z,8.38
2022-09-12T21:44:09.158Z,6.63
2022-09-12T21:46:36.564Z,7.30
2022-09-12T21:49:03.986Z,7.97
2022-09-12T21:51:31.404Z,6.20
2022-09-12T21:53:58.758Z,6.35
2022-09-12T21:56:27.447Z,7.13
2022-09-12T21:58:54.812Z,11.77
2022-09-12T22:01:22.254Z,6.68
2022-09-12T22:03:50.067Z,5.50
2022-09-12T22:06:21.862Z,6.75
2022-09-12T22:08:49.824Z,7.43
2022-09-12T22:11:19.702Z,6.03
2022-09-12T22:13:48.489Z,6.72
2022-09-12T22:16:15.961Z,25.27
2022-09-12T22:18:43.333Z,7.95
2022-09-12T22:21:12.872Z,6.65
2022-09-12T22:23:57.867Z,5.95
2022-09-12T22:26:26.909Z,6.35
2022-09-12T22:28:55.837Z,5.18
2022-09-12T22:31:23.544Z,5.15
2022-09-12T22:33:51.404Z,6.57
2022-09-12T22:36:18.922Z,4.97
2022-09-12T22:38:46.368Z,10.80
2022-09-12T22:41:14.069Z,5.20
2022-09-12T22:43:41.801Z,4.75
2022-09-12T22:46:12.067Z,6.25
2022-09-12T22:48:39.705Z,5.72
2022-09-12T22:51:07.666Z,6.40
2022-09-12T22:53:35.316Z,5.28
2022-09-12T22:56:04.916Z,6.10
2022-09-12T22:58:32.358Z,4.57
2022-09-12T23:00:59.871Z,5.53
2022-09-12T23:03:28.714Z,5.35
2022-09-12T23:05:56.134Z,6.90
2022-09-12T23:08:23.458Z,6.03
2022-09-12T23:10:51.052Z,5.63
2022-09-12T23:13:18.376Z,4.28
2022-09-12T23:15:45.698Z,5.13
2022-09-12T23:18:13.091Z,7.05
2022-09-12T23:20:41.763Z,5.25
2022-09-12T23:23:09.583Z,5.68
2022-09-12T23:25:37.103Z,4.55
2022-09-12T23:28:04.468Z,4.43
2022-09-12T23:30:31.798Z,4.53
2022-09-12T23:32:59.156Z,6.30
2022-09-12T23:35:26.544Z,6.00
2022-09-12T23:37:55.313Z,4.40
2022-09-12T23:40:22.816Z,4.53
2022-09-12T23:42:50.199Z,4.30
2022-09-12T23:45:17.748Z,4.60
2022-09-12T23:47:45.162Z,4.78
2022-09-12T23:50:12.520Z,5.53
2022-09-12T23:52:39.927Z,4.78
2022-09-12T23:55:09.355Z,7.13
2022-09-12T23:57:36.754Z,4.40
